createdAt,value
2023-09-23T00:00:17.389Z,99.90
2023-09-23T00:02:20.833Z,99.90
2023-09-23T00:04:24.326Z,99.90
2023-09-23T00:06:29.195Z,99.90
2023-09-23T00:08:32.561Z,99.90
2023-09-23T00:10:38.276Z,99.90
2023-09-23T00:12:43.045Z,99.90
2023-09-23T00:14:47.100Z,99.90
2023-09-23T00:16:52.035Z,99.90
2023-09-23T00:18:54.636Z,99.90
2023-09-23T00:20:58.358Z,99.90
2023-09-23T00:23:03.635Z,99.90
2023-09-23T00:25:08.394Z,99.90
2023-09-23T00:27:12.015Z,99.90
2023-09-23T00:29:15.373Z,99.90
2023-09-23T00:31:20.350Z,99.90
2023-09-23T00:33:26.806Z,99.90
2023-09-23T00:35:30.263Z,99.90
2023-09-23T00:37:33.652Z,99.90
2023-09-23T00:39:42.991Z,99.90
2023-09-23T00:41:46.491Z,99.90
2023-09-23T00:43:52.016Z,99.90
2023-09-23T00:45:56.858Z,99.90
2023-09-23T00:48:01.215Z,99.90
2023-09-23T00:50:07.604Z,99.90
2023-09-23T00:52:11.878Z,99.90
2023-09-23T00:54:15.885Z,99.90
2023-09-23T00:56:21.629Z,99.90
2023-09-23T00:58:27.658Z,99.90
2023-09-23T01:00:33.065Z,99.90
2023-09-23T01:02:39.049Z,99.90
2023-09-23T01:04:41.862Z,99.90
2023-09-23T01:06:46.764Z,99.90
2023-09-23T01:08:52.922Z,99.90
2023-09-23T01:10:56.272Z,99.90
2023-09-23T01:13:00.747Z,99.90
2023-09-23T01:15:18.291Z,99.90
2023-09-23T01:17:22.464Z,99.90
2023-09-23T01:19:28.350Z,99.90
2023-09-23T01:21:33.052Z,99.90
2023-09-23T01:23:37.645Z,99.90
2023-09-23T01:25:42.206Z,99.90
2023-09-23T01:27:45.661Z,99.90
2023-09-23T01:29:54.899Z,99.90
2023-09-23T01:32:11.697Z,99.90
2023-09-23T01:34:15.914Z,99.90
2023-09-23T01:36:19.400Z,99.90
2023-09-23T01:38:23.239Z,99.90
2023-09-23T01:40:30.509Z,99.90
2023-09-23T01:42:34.004Z,99.90
2023-09-23T01:44:37.781Z,99.90
2023-09-23T01:46:41.394Z,99.90
2023-09-23T01:48:44.933Z,99.90
2023-09-23T01:50:50.646Z,99.90
2023-09-23T01:52:55.663Z,99.90
2023-09-23T01:54:57.913Z,99.90
2023-09-23T01:57:04.075Z,99.90
2023-09-23T01:59:07.488Z,99.90
2023-09-23T02:01:10.891Z,99.90
2023-09-23T02:03:16.091Z,99.90
2023-09-23T02:05:19.985Z,99.90
2023-09-23T02:07:23.741Z,99.90
2023-09-23T02:09:26.563Z,99.90
2023-09-23T02:11:31.204Z,99.90
2023-09-23T02:13:41.602Z,99.90
2023-09-23T02:15:46.968Z,99.90
2023-09-23T02:17:51.125Z,99.90
2023-09-23T02:19:55.108Z,99.90
2023-09-23T02:21:58.635Z,99.90
2023-09-23T02:24:02.009Z,99.90
2023-09-23T02:26:05.483Z,99.90
2023-09-23T02:28:09.503Z,99.90
2023-09-23T02:30:15.729Z,99.90
2023-09-23T02:32:19.322Z,99.90
2023-09-23T02:34:22.881Z,99.90
2023-09-23T02:36:26.367Z,99.90
2023-09-23T02:38:29.783Z,99.90
2023-09-23T02:40:33.176Z,99.90
2023-09-23T02:42:35.434Z,99.90
2023-09-23T02:44:38.932Z,99.90
2023-09-23T02:46:44.060Z,99.90
2023-09-23T02:48:48.602Z,99.90
2023-09-23T02:50:52.065Z,99.90
2023-09-23T02:52:54.394Z,99.90
2023-09-23T02:54:58.134Z,99.90
2023-09-23T02:57:02.041Z,99.90
2023-09-23T02:59:13.126Z,99.90
2023-09-23T03:01:17.909Z,99.90
2023-09-23T03:03:23.252Z,99.90
2023-09-23T03:05:30.628Z,99.90
2023-09-23T03:07:36.566Z,99.90
2023-09-23T03:09:45.239Z,99.90
2023-09-23T03:11:54.545Z,99.90
2023-09-23T03:13:58.201Z,99.90
2023-09-23T03:16:09.574Z,99.90
2023-09-23T03:18:16.285Z,99.90
2023-09-23T03:20:22.562Z,99.90
2023-09-23T03:22:25.865Z,99.90
2023-09-23T03:24:31.096Z,99.90
2023-09-23T03:26:34.577Z,99.90
2023-09-23T03:28:40.421Z,99.90
2023-09-23T03:30:44.330Z,99.90
2023-09-23T03:32:48.257Z,99.90
2023-09-23T03:34:52.300Z,99.90
2023-09-23T03:36:57.273Z,99.90
2023-09-23T03:39:02.402Z,99.90
2023-09-23T03:41:05.846Z,99.90
2023-09-23T03:43:09.224Z,99.90
2023-09-23T03:45:12.165Z,99.90
2023-09-23T03:47:16.220Z,99.90
2023-09-23T03:49:20.169Z,99.90
2023-09-23T03:51:23.785Z,99.90
2023-09-23T03:53:28.485Z,99.90
2023-09-23T03:55:31.868Z,99.90
2023-09-23T03:57:34.081Z,99.90
2023-09-23T03:59:37.536Z,99.90
2023-09-23T04:01:41.128Z,99.90
2023-09-23T04:03:44.776Z,99.90
2023-09-23T04:05:55.914Z,99.90
2023-09-23T04:07:59.897Z,99.90
2023-09-23T04:10:04.949Z,99.90
2023-09-23T04:12:10.199Z,99.90
2023-09-23T04:14:13.501Z,99.90
2023-09-23T04:16:16.996Z,99.90
2023-09-23T04:18:20.901Z,99.90
2023-09-23T04:20:24.200Z,99.90
2023-09-23T04:22:27.593Z,99.90
2023-09-23T04:24:30.965Z,99.90
2023-09-23T04:26:35.597Z,99.90
2023-09-23T04:28:39.430Z,99.90
2023-09-23T04:30:42.871Z,99.90
2023-09-23T04:32:47.264Z,99.90
2023-09-23T04:34:50.810Z,99.90
2023-09-23T04:36:54.182Z,99.90
2023-09-23T04:38:57.459Z,99.90
2023-09-23T04:41:01.400Z,99.90
2023-09-23T04:43:06.414Z,99.90
2023-09-23T04:45:10.728Z,99.90
2023-09-23T04:47:14.021Z,99.90
2023-09-23T04:49:17.362Z,99.90
2023-09-23T04:51:20.803Z,99.90
2023-09-23T04:53:24.326Z,99.90
2023-09-23T04:55:29.542Z,99.90
2023-09-23T04:57:32.625Z,99.90
2023-09-23T04:59:37.336Z,99.90
2023-09-23T05:01:41.442Z,99.90
2023-09-23T05:03:44.756Z,99.90
2023-09-23T05:05:48.024Z,99.90
2023-09-23T10:48:49.200Z,99.90
2023-09-23T10:50:53.217Z,99.90
2023-09-23T10:52:55.714Z,99.90
2023-09-23T10:54:59.980Z,99.90
2023-09-23T10:57:03.722Z,99.90
2023-09-23T13:47:03.288Z,99.90
2023-09-23T13:49:06.705Z,99.90
2023-09-23T13:51:11.701Z,99.90
2023-09-23T13:53:15.191Z,99.90
2023-09-23T13:55:18.517Z,99.90
2023-09-23T13:57:21.970Z,99.90
2023-09-23T13:59:25.286Z,99.90
2023-09-23T14:01:30.204Z,99.90
2023-09-23T14:03:35.481Z,99.90
2023-09-23T14:05:38.884Z,99.90
2023-09-23T14:07:43.658Z,99.90
2023-09-23T14:10:14.584Z,99.90
2023-09-23T14:12:24.293Z,99.90
2023-09-23T14:14:27.794Z,99.90
2023-09-23T14:16:31.297Z,99.90
2023-09-23T14:18:33.623Z,99.90
2023-09-23T14:20:37.006Z,99.90
2023-09-23T14:22:39.341Z,99.90
2023-09-23T14:24:44.024Z,99.90
2023-09-23T14:26:47.291Z,99.90
2023-09-23T14:28:50.813Z,99.90
2023-09-23T14:30:54.138Z,99.90
2023-09-23T14:32:57.603Z,99.90
2023-09-23T14:35:01.297Z,99.90
2023-09-23T14:37:04.694Z,99.90
2023-09-23T14:39:08.305Z,99.90
2023-09-23T14:41:13.393Z,99.90
2023-09-23T14:43:16.861Z,99.90
2023-09-23T14:45:20.468Z,99.90
2023-09-23T14:47:23.893Z,99.90
2023-09-23T14:49:27.347Z,99.90
2023-09-23T14:51:29.817Z,99.90
2023-09-23T14:53:36.013Z,99.90
2023-09-23T14:55:39.550Z,99.90
2023-09-23T14:57:44.607Z,99.90
2023-09-23T14:59:47.890Z,99.90
2023-09-23T15:01:51.341Z,99.90
2023-09-23T15:03:55.061Z,99.90
2023-09-23T15:05:58.522Z,99.90
2023-09-23T15:08:02.291Z,99.90
2023-09-23T15:10:06.718Z,99.90
2023-09-23T15:12:10.588Z,99.90
2023-09-23T15:14:16.586Z,99.90
2023-09-23T15:16:20.369Z,99.90
2023-09-23T15:18:24.172Z,99.90
2023-09-23T15:20:27.699Z,99.90
2023-09-23T15:22:32.576Z,99.90
2023-09-23T15:24:36.370Z,99.90
2023-09-23T15:26:39.856Z,99.90
2023-09-23T15:28:43.764Z,99.90
2023-09-23T15:30:48.601Z,99.90
2023-09-23T15:32:52.078Z,99.90
2023-09-23T15:34:55.569Z,99.90
2023-09-23T15:36:59.103Z,99.90
2023-09-23T15:39:02.574Z,99.90
2023-09-23T15:41:05.995Z,99.90
2023-09-23T15:43:09.360Z,99.90
2023-09-23T15:45:13.384Z,99.90
2023-09-23T15:47:19.590Z,99.90
2023-09-23T15:49:23.530Z,99.90
2023-09-23T15:51:26.780Z,99.90
2023-09-23T15:53:29.539Z,99.90
2023-09-23T15:55:32.990Z,99.90
2023-09-23T15:57:36.305Z,99.90
2023-09-23T15:59:39.991Z,99.90
2023-09-23T16:01:43.663Z,99.90
2023-09-23T16:03:48.543Z,99.90
2023-09-23T16:05:52.172Z,99.90
2023-09-23T16:07:55.557Z,99.90
2023-09-23T16:09:59.128Z,99.90
2023-09-23T16:12:02.791Z,99.90
2023-09-23T16:14:06.062Z,99.90
2023-09-23T16:16:09.315Z,99.90
2023-09-23T16:18:12.955Z,99.90
2023-09-23T16:20:18.199Z,99.90
2023-09-23T16:22:21.975Z,99.90
2023-09-23T16:24:25.289Z,99.90
2023-09-23T16:26:28.749Z,99.90
2023-09-23T16:28:33.030Z,99.90
2023-09-23T16:30:35.539Z,99.90
2023-09-23T16:32:39.604Z,99.90
2023-09-23T16:34:43.800Z,99.90
2023-09-23T16:36:48.821Z,99.90
2023-09-23T16:38:52.248Z,99.90
2023-09-23T16:40:55.585Z,99.90
2023-09-23T16:42:58.849Z,99.90
2023-09-23T16:45:02.357Z,99.90
2023-09-23T16:47:05.802Z,99.90
2023-09-23T16:49:09.081Z,99.90
2023-09-23T16:51:12.641Z,99.90
2023-09-23T16:53:16.583Z,99.90
2023-09-23T16:55:20.281Z,99.90
2023-09-23T16:57:23.584Z,99.90
2023-09-23T16:59:27.162Z,99.90
2023-09-23T17:01:30.484Z,99.90
2023-09-23T17:03:33.777Z,99.90
2023-09-23T17:05:37.945Z,99.90
2023-09-23T17:07:41.564Z,99.90
2023-09-23T17:09:46.196Z,99.90
2023-09-23T17:11:49.506Z,99.90
2023-09-23T17:13:53.034Z,99.90
2023-09-23T17:15:56.444Z,99.90
2023-09-23T17:18:02.341Z,99.90
2023-09-23T17:20:06.897Z,99.90
2023-09-23T17:22:10.915Z,99.90
2023-09-23T17:24:13.142Z,99.90
2023-09-23T17:26:17.867Z,99.90
2023-09-23T17:28:21.226Z,99.90
2023-09-23T17:30:24.847Z,99.90
2023-09-23T17:32:28.187Z,99.90
2023-09-23T17:34:31.627Z,99.90
2023-09-23T17:36:35.034Z,99.90
2023-09-23T17:38:38.429Z,99.90
2023-09-23T17:40:48.555Z,99.90
2023-09-23T17:42:53.242Z,99.90
2023-09-23T17:44:56.547Z,99.90
2023-09-23T17:46:59.898Z,99.90
2023-09-23T17:49:03.640Z,99.90
2023-09-23T17:51:06.953Z,99.90
2023-09-23T17:53:10.506Z,99.90
2023-09-23T17:55:13.857Z,99.90
2023-09-23T17:57:17.114Z,99.90
2023-09-23T17:59:21.837Z,99.90
2023-09-23T18:01:25.299Z,99.90
2023-09-23T18:03:31.775Z,99.90
2023-09-23T18:05:36.335Z,99.90
2023-09-23T18:07:40.711Z,99.90
2023-09-23T18:09:44.155Z,99.90
2023-09-23T18:11:48.319Z,99.90
2023-09-23T18:13:51.659Z,99.90
2023-09-23T18:15:55.905Z,99.90
2023-09-23T18:17:59.378Z,99.90
2023-09-23T18:20:04.248Z,99.90
2023-09-23T18:22:07.556Z,99.90
2023-09-23T18:24:10.897Z,99.90
2023-09-23T18:26:15.316Z,99.90
2023-09-23T18:28:18.710Z,99.90
2023-09-23T18:30:22.205Z,99.90
2023-09-23T18:32:27.131Z,99.90
2023-09-23T18:34:30.669Z,99.90
2023-09-23T18:36:33.962Z,99.90
2023-09-23T18:38:37.404Z,99.90
2023-09-23T18:40:40.807Z,99.90
2023-09-23T18:42:44.299Z,99.90
2023-09-23T18:44:47.724Z,99.90
2023-09-23T18:46:51.095Z,99.90
2023-09-23T18:48:55.939Z,99.90
2023-09-23T18:50:59.294Z,99.90
2023-09-23T18:53:01.674Z,99.90
2023-09-23T18:55:05.676Z,99.90
2023-09-23T18:57:09.009Z,99.90
2023-09-23T18:59:12.342Z,99.90
2023-09-23T19:01:15.888Z,99.90
2023-09-23T19:03:19.440Z,99.90
2023-09-23T19:07:27.889Z,99.90
2023-09-23T19:19:56.202Z,99.90
2023-09-23T19:22:01.831Z,99.90
2023-09-23T19:24:05.514Z,99.90
2023-09-23T19:26:08.955Z,99.90
2023-09-23T19:28:12.351Z,99.90
2023-09-23T19:32:19.882Z,99.90
2023-09-23T19:36:31.434Z,99.90
2023-09-23T19:44:48.635Z,99.90
2023-09-23T19:46:52.352Z,99.90
2023-09-23T19:48:56.391Z,99.90
2023-09-23T19:51:00.726Z,99.90
2023-09-23T19:53:04.177Z,99.90
2023-09-23T19:55:11.893Z,99.90
2023-09-23T19:57:15.204Z,99.90
2023-09-23T20:05:32.311Z,99.90
2023-09-23T20:07:36.178Z,99.90
2023-09-23T20:09:39.523Z,99.90
2023-09-23T20:13:49.568Z,99.90
2023-09-23T20:15:52.246Z,99.90
2023-09-23T20:17:57.731Z,99.90
2023-09-23T20:20:01.464Z,99.90
2023-09-23T20:22:04.774Z,99.90
2023-09-23T20:24:09.318Z,99.90
2023-09-23T20:26:14.125Z,99.90
2023-09-23T20:28:21.050Z,99.90
2023-09-23T20:30:24.927Z,99.90
2023-09-23T20:32:29.678Z,99.90
2023-09-23T20:34:33.275Z,99.90
2023-09-23T20:36:36.719Z,99.90
2023-09-23T20:38:40.353Z,99.90
2023-09-23T20:40:44.319Z,99.90
2023-09-23T20:42:46.535Z,99.90
2023-09-23T20:44:51.192Z,99.90
2023-09-23T20:46:54.507Z,99.90
2023-09-23T20:48:57.885Z,99.90
2023-09-23T20:51:01.256Z,99.90
2023-09-23T20:53:04.779Z,99.90
2023-09-23T20:55:09.152Z,99.90
2023-09-23T20:57:12.684Z,99.90
2023-09-23T20:59:16.118Z,99.90
2023-09-23T21:01:20.977Z,99.90
2023-09-23T21:03:24.470Z,99.90
2023-09-23T21:05:28.482Z,99.90
2023-09-23T21:07:32.331Z,99.90
2023-09-23T21:09:35.930Z,99.90
2023-09-23T21:11:40.967Z,99.60
2023-09-23T21:13:44.355Z,99.90
2023-09-23T21:15:48.106Z,99.90
2023-09-23T21:17:54.163Z,99.90
2023-09-23T21:19:57.579Z,99.90
2023-09-23T21:22:02.572Z,99.60
2023-09-23T21:24:06.442Z,99.30
2023-09-23T21:26:09.936Z,97.70
2023-09-23T21:28:13.318Z,97.10
2023-09-23T21:30:17.652Z,96.00
2023-09-23T21:32:21.615Z,96.40
2023-09-23T21:34:29.216Z,95.90
2023-09-23T21:36:32.933Z,96.10
2023-09-23T21:38:36.389Z,98.00
2023-09-23T21:40:44.128Z,97.70
2023-09-23T21:42:47.613Z,97.20
2023-09-23T21:44:50.969Z,96.80
2023-09-23T21:46:54.415Z,97.00
2023-09-23T21:48:58.098Z,97.10
2023-09-23T21:51:04.475Z,95.40
2023-09-23T21:53:07.956Z,94.10
2023-09-23T21:55:12.374Z,94.00
2023-09-23T21:57:15.735Z,92.90
2023-09-23T21:59:19.327Z,93.10
2023-09-23T22:01:21.837Z,93.00
2023-09-23T22:03:25.387Z,92.40
2023-09-23T22:05:29.261Z,92.30
2023-09-23T22:07:34.268Z,91.90
2023-09-23T22:09:37.636Z,91.70
2023-09-23T22:11:43.201Z,91.20
2023-09-23T22:13:47.165Z,91.20
2023-09-23T22:15:50.584Z,91.70
2023-09-23T22:17:54.243Z,91.20
2023-09-23T22:19:57.159Z,90.80
2023-09-23T22:22:02.082Z,90.30
2023-09-23T22:24:08.305Z,90.00
2023-09-23T22:26:15.442Z,90.90
2023-09-23T22:28:18.922Z,90.80
2023-09-23T22:30:25.703Z,91.00
2023-09-23T22:32:29.735Z,90.50
2023-09-23T22:34:34.954Z,90.60
2023-09-23T22:36:37.272Z,90.20
2023-09-23T22:38:40.689Z,89.50
2023-09-23T22:40:47.770Z,89.60
2023-09-23T22:42:51.655Z,90.10
2023-09-23T22:44:55.129Z,90.10
2023-09-23T22:46:58.847Z,90.20
2023-09-23T22:49:01.279Z,89.40
2023-09-23T22:51:05.394Z,89.80
2023-09-23T22:53:09.556Z,90.50
2023-09-23T22:55:14.538Z,89.80
2023-09-23T22:57:19.290Z,89.50
2023-09-23T22:59:25.083Z,90.20
2023-09-23T23:01:28.513Z,90.10
2023-09-23T23:03:32.019Z,90.20
2023-09-23T23:05:36.240Z,90.20
2023-09-23T23:07:39.969Z,88.90
2023-09-23T23:09:42.357Z,89.80
2023-09-23T23:11:45.699Z,89.20
2023-09-23T23:13:51.193Z,88.90
2023-09-23T23:15:54.622Z,86.90
2023-09-23T23:17:58.200Z,87.10
2023-09-23T23:20:03.680Z,88.50
2023-09-23T23:22:07.083Z,87.50
2023-09-23T23:24:11.121Z,88.10
2023-09-23T23:26:16.298Z,90.40
2023-09-23T23:28:19.646Z,90.00
2023-09-23T23:30:24.690Z,90.10
2023-09-23T23:32:28.136Z,89.60
2023-09-23T23:34:31.674Z,90.30
2023-09-23T23:36:35.046Z,87.20
2023-09-23T23:38:40.652Z,87.00
2023-09-23T23:40:44.306Z,86.20
2023-09-23T23:42:47.652Z,87.60
2023-09-23T23:44:53.399Z,87.80
2023-09-23T23:46:58.348Z,87.20
2023-09-23T23:49:02.258Z,87.10
2023-09-23T23:51:06.745Z,87.70
2023-09-23T23:53:10.087Z,85.90
2023-09-23T23:55:13.973Z,87.20
2023-09-23T23:57:17.582Z,87.30
2023-09-23T23:59:21.417Z,87.10
